sensor_id;sensor_type;location;lat;lon;timestamp;temperature;humidity
1830;DHT22;914;48.118;11.600;2022-07-29T00:02:26;23.40;89.90
1830;DHT22;914;48.118;11.600;2022-07-29T00:04:52;23.30;90.00
1830;DHT22;914;48.118;11.600;2022-07-29T00:07:18;23.40;89.60
1830;DHT22;914;48.118;11.600;2022-07-29T00:09:43;23.50;89.20
1830;DHT22;914;48.118;11.600;2022-07-29T00:12:09;23.70;89.00
1830;DHT22;914;48.118;11.600;2022-07-29T00:14:35;23.70;88.70
1830;DHT22;914;48.118;11.600;2022-07-29T00:17:00;23.80;88.80
1830;DHT22;914;48.118;11.600;2022-07-29T00:19:26;23.60;89.40
1830;DHT22;914;48.118;11.600;2022-07-29T00:21:52;23.50;90.00
1830;DHT22;914;48.118;11.600;2022-07-29T00:24:17;23.50;90.20
1830;DHT22;914;48.118;11.600;2022-07-29T00:26:43;23.40;90.60
1830;DHT22;914;48.118;11.600;2022-07-29T00:29:09;23.50;90.60
1830;DHT22;914;48.118;11.600;2022-07-29T00:31:34;23.40;90.50
1830;DHT22;914;48.118;11.600;2022-07-29T00:34:00;23.30;90.80
1830;DHT22;914;48.118;11.600;2022-07-29T00:36:25;23.40;90.50
1830;DHT22;914;48.118;11.600;2022-07-29T00:38:51;23.40;90.30
1830;DHT22;914;48.118;11.600;2022-07-29T00:41:17;23.30;90.40
1830;DHT22;914;48.118;11.600;2022-07-29T00:43:44;23.40;90.20
1830;DHT22;914;48.118;11.600;2022-07-29T00:46:10;23.50;90.00
1830;DHT22;914;48.118;11.600;2022-07-29T00:48:35;23.50;90.50
1830;DHT22;914;48.118;11.600;2022-07-29T00:51:02;23.40;90.10
1830;DHT22;914;48.118;11.600;2022-07-29T00:53:29;23.50;89.30
1830;DHT22;914;48.118;11.600;2022-07-29T00:55:55;23.50;88.90
1830;DHT22;914;48.118;11.600;2022-07-29T00:58:22;23.40;88.90
1830;DHT22;914;48.118;11.600;2022-07-29T01:00:48;23.60;87.80
1830;DHT22;914;48.118;11.600;2022-07-29T01:03:14;23.60;87.40
1830;DHT22;914;48.118;11.600;2022-07-29T01:05:41;23.60;87.50
1830;DHT22;914;48.118;11.600;2022-07-29T01:08:08;23.80;87.20
1830;DHT22;914;48.118;11.600;2022-07-29T01:10:38;23.70;87.20
1830;DHT22;914;48.118;11.600;2022-07-29T01:13:05;23.60;87.40
1830;DHT22;914;48.118;11.600;2022-07-29T01:15:33;23.60;88.00
1830;DHT22;914;48.118;11.600;2022-07-29T01:18:10;23.70;87.50
1830;DHT22;914;48.118;11.600;2022-07-29T01:29:23;23.80;87.50
1830;DHT22;914;48.118;11.600;2022-07-29T01:39:41;23.80;87.60
1830;DHT22;914;48.118;11.600;2022-07-29T01:42:27;23.90;87.00
1830;DHT22;914;48.118;11.600;2022-07-29T01:45:08;23.70;87.00
1830;DHT22;914;48.118;11.600;2022-07-29T01:47:43;23.60;86.70
1830;DHT22;914;48.118;11.600;2022-07-29T01:50:14;23.60;87.00
1830;DHT22;914;48.118;11.600;2022-07-29T01:52:49;23.40;87.40
1830;DHT22;914;48.118;11.600;2022-07-29T01:55:20;23.40;86.90
1830;DHT22;914;48.118;11.600;2022-07-29T01:57:48;23.60;86.00
1830;DHT22;914;48.118;11.600;2022-07-29T02:00:16;23.60;85.90
1830;DHT22;914;48.118;11.600;2022-07-29T02:02:44;23.50;86.00
1830;DHT22;914;48.118;11.600;2022-07-29T02:05:13;23.50;86.40
1830;DHT22;914;48.118;11.600;2022-07-29T02:07:42;23.60;86.10
1830;DHT22;914;48.118;11.600;2022-07-29T02:10:09;23.60;85.80
1830;DHT22;914;48.118;11.600;2022-07-29T02:12:39;23.80;85.30
1830;DHT22;914;48.118;11.600;2022-07-29T02:15:06;23.70;85.20
1830;DHT22;914;48.118;11.600;2022-07-29T02:17:39;23.70;85.30
1830;DHT22;914;48.118;11.600;2022-07-29T02:20:07;23.70;85.90
1830;DHT22;914;48.118;11.600;2022-07-29T02:22:37;23.60;86.60
1830;DHT22;914;48.118;11.600;2022-07-29T02:25:04;23.60;86.30
1830;DHT22;914;48.118;11.600;2022-07-29T02:27:32;23.60;87.00
1830;DHT22;914;48.118;11.600;2022-07-29T02:30:01;23.60;86.90
1830;DHT22;914;48.118;11.600;2022-07-29T02:32:28;23.50;87.50
1830;DHT22;914;48.118;11.600;2022-07-29T02:34:56;23.30;87.80
1830;DHT22;914;48.118;11.600;2022-07-29T02:37:22;23.30;88.30
1830;DHT22;914;48.118;11.600;2022-07-29T02:39:49;23.30;88.40
1830;DHT22;914;48.118;11.600;2022-07-29T02:42:18;23.40;88.20
1830;DHT22;914;48.118;11.600;2022-07-29T02:44:44;23.50;88.30
1830;DHT22;914;48.118;11.600;2022-07-29T02:47:21;23.50;87.60
1830;DHT22;914;48.118;11.600;2022-07-29T02:55:02;23.30;88.50
1830;DHT22;914;48.118;11.600;2022-07-29T02:59:58;23.50;88.30
1830;DHT22;914;48.118;11.600;2022-07-29T03:02:27;23.40;88.40
1830;DHT22;914;48.118;11.600;2022-07-29T03:04:55;23.30;89.00
1830;DHT22;914;48.118;11.600;2022-07-29T03:07:22;23.10;89.40
1830;DHT22;914;48.118;11.600;2022-07-29T03:09:49;23.10;89.30
1830;DHT22;914;48.118;11.600;2022-07-29T03:12:16;23.20;88.70
1830;DHT22;914;48.118;11.600;2022-07-29T03:14:43;23.20;88.50
1830;DHT22;914;48.118;11.600;2022-07-29T03:17:09;23.20;88.90
1830;DHT22;914;48.118;11.600;2022-07-29T03:19:35;23.10;89.40
1830;DHT22;914;48.118;11.600;2022-07-29T03:22:02;23.10;89.50
1830;DHT22;914;48.118;11.600;2022-07-29T03:24:32;23.10;89.40
1830;DHT22;914;48.118;11.600;2022-07-29T03:26:59;23.10;89.60
1830;DHT22;914;48.118;11.600;2022-07-29T03:29:25;23.00;90.10
1830;DHT22;914;48.118;11.600;2022-07-29T03:31:51;22.90;90.10
1830;DHT22;914;48.118;11.600;2022-07-29T03:34:17;23.10;89.80
1830;DHT22;914;48.118;11.600;2022-07-29T03:36:43;23.10;89.00
1830;DHT22;914;48.118;11.600;2022-07-29T03:39:09;23.00;89.60
1830;DHT22;914;48.118;11.600;2022-07-29T03:41:37;22.90;90.00
1830;DHT22;914;48.118;11.600;2022-07-29T03:44:05;22.80;90.20
1830;DHT22;914;48.118;11.600;2022-07-29T03:46:34;22.70;90.10
1830;DHT22;914;48.118;11.600;2022-07-29T03:49:01;22.70;89.80
1830;DHT22;914;48.118;11.600;2022-07-29T03:51:28;22.80;90.10
1830;DHT22;914;48.118;11.600;2022-07-29T03:53:54;23.00;90.20
1830;DHT22;914;48.118;11.600;2022-07-29T03:56:21;23.00;89.90
1830;DHT22;914;48.118;11.600;2022-07-29T03:58:51;23.00;90.10
1830;DHT22;914;48.118;11.600;2022-07-29T04:01:18;23.00;90.10
1830;DHT22;914;48.118;11.600;2022-07-29T04:03:45;22.90;90.10
1830;DHT22;914;48.118;11.600;2022-07-29T04:06:11;22.90;90.40
1830;DHT22;914;48.118;11.600;2022-07-29T04:08:38;22.70;90.80
1830;DHT22;914;48.118;11.600;2022-07-29T04:11:04;22.50;90.90
1830;DHT22;914;48.118;11.600;2022-07-29T04:13:31;22.60;90.60
1830;DHT22;914;48.118;11.600;2022-07-29T04:15:57;22.60;91.20
1830;DHT22;914;48.118;11.600;2022-07-29T04:18:23;22.40;91.60
1830;DHT22;914;48.118;11.600;2022-07-29T04:20:49;22.50;91.60
1830;DHT22;914;48.118;11.600;2022-07-29T04:23:15;22.50;91.50
1830;DHT22;914;48.118;11.600;2022-07-29T04:25:41;22.50;91.40
1830;DHT22;914;48.118;11.600;2022-07-29T04:28:08;22.50;91.50
1830;DHT22;914;48.118;11.600;2022-07-29T04:30:34;22.60;91.40
1830;DHT22;914;48.118;11.600;2022-07-29T04:33:02;22.70;91.30
1830;DHT22;914;48.118;11.600;2022-07-29T04:35:29;22.60;90.20
1830;DHT22;914;48.118;11.600;2022-07-29T04:37:55;22.70;90.30
1830;DHT22;914;48.118;11.600;2022-07-29T04:40:21;22.70;90.60
1830;DHT22;914;48.118;11.600;2022-07-29T04:42:46;22.80;90.60
1830;DHT22;914;48.118;11.600;2022-07-29T04:45:12;22.80;91.30
1830;DHT22;914;48.118;11.600;2022-07-29T04:47:38;22.90;91.20
1830;DHT22;914;48.118;11.600;2022-07-29T04:50:04;22.60;91.40
1830;DHT22;914;48.118;11.600;2022-07-29T04:52:32;22.50;91.90
1830;DHT22;914;48.118;11.600;2022-07-29T04:54:58;22.00;92.40
1830;DHT22;914;48.118;11.600;2022-07-29T04:57:23;21.60;92.60
1830;DHT22;914;48.118;11.600;2022-07-29T04:59:49;21.60;93.20
1830;DHT22;914;48.118;11.600;2022-07-29T05:02:15;21.70;93.40
1830;DHT22;914;48.118;11.600;2022-07-29T05:04:40;22.10;93.10
1830;DHT22;914;48.118;11.600;2022-07-29T05:07:06;22.50;92.60
1830;DHT22;914;48.118;11.600;2022-07-29T05:09:32;22.50;92.10
1830;DHT22;914;48.118;11.600;2022-07-29T05:11:58;22.20;92.50
1830;DHT22;914;48.118;11.600;2022-07-29T05:14:23;22.40;92.70
1830;DHT22;914;48.118;11.600;2022-07-29T05:16:49;22.60;92.40
1830;DHT22;914;48.118;11.600;2022-07-29T05:19:17;22.40;92.30
1830;DHT22;914;48.118;11.600;2022-07-29T05:21:44;22.60;92.40
1830;DHT22;914;48.118;11.600;2022-07-29T05:24:10;22.80;92.30
1830;DHT22;914;48.118;11.600;2022-07-29T05:26:36;23.00;92.10
1830;DHT22;914;48.118;11.600;2022-07-29T05:29:02;23.30;91.70
1830;DHT22;914;48.118;11.600;2022-07-29T05:31:28;23.40;91.30
1830;DHT22;914;48.118;11.600;2022-07-29T05:33:53;23.50;91.10
1830;DHT22;914;48.118;11.600;2022-07-29T05:36:19;23.60;91.10
1830;DHT22;914;48.118;11.600;2022-07-29T05:38:45;23.70;90.90
1830;DHT22;914;48.118;11.600;2022-07-29T05:41:10;23.80;90.70
1830;DHT22;914;48.118;11.600;2022-07-29T05:43:37;23.90;91.00
1830;DHT22;914;48.118;11.600;2022-07-29T05:46:02;24.00;90.90
1830;DHT22;914;48.118;11.600;2022-07-29T05:48:28;24.00;90.30
1830;DHT22;914;48.118;11.600;2022-07-29T05:50:54;24.00;90.40
1830;DHT22;914;48.118;11.600;2022-07-29T05:53:20;24.00;90.40
1830;DHT22;914;48.118;11.600;2022-07-29T05:55:46;24.10;90.70
1830;DHT22;914;48.118;11.600;2022-07-29T05:58:12;24.10;90.00
1830;DHT22;914;48.118;11.600;2022-07-29T06:00:37;24.30;89.60
1830;DHT22;914;48.118;11.600;2022-07-29T06:03:03;24.30;90.00
1830;DHT22;914;48.118;11.600;2022-07-29T06:05:28;24.30;89.70
1830;DHT22;914;48.118;11.600;2022-07-29T06:07:54;24.40;90.00
1830;DHT22;914;48.118;11.600;2022-07-29T06:10:20;24.50;89.00
1830;DHT22;914;48.118;11.600;2022-07-29T06:12:46;24.50;88.70
1830;DHT22;914;48.118;11.600;2022-07-29T06:15:11;24.60;88.40
1830;DHT22;914;48.118;11.600;2022-07-29T06:17:37;24.70;88.30
1830;DHT22;914;48.118;11.600;2022-07-29T06:20:03;24.60;88.70
1830;DHT22;914;48.118;11.600;2022-07-29T06:22:29;24.60;88.60
1830;DHT22;914;48.118;11.600;2022-07-29T06:24:55;24.70;88.60
1830;DHT22;914;48.118;11.600;2022-07-29T06:27:20;24.60;89.20
1830;DHT22;914;48.118;11.600;2022-07-29T06:29:46;24.80;89.60
1830;DHT22;914;48.118;11.600;2022-07-29T06:32:12;25.00;89.90
1830;DHT22;914;48.118;11.600;2022-07-29T06:34:37;25.10;89.40
1830;DHT22;914;48.118;11.600;2022-07-29T06:37:07;25.20;89.10
1830;DHT22;914;48.118;11.600;2022-07-29T06:39:36;25.50;87.90
1830;DHT22;914;48.118;11.600;2022-07-29T06:42:03;24.90;87.80
1830;DHT22;914;48.118;11.600;2022-07-29T06:44:29;24.80;89.60
1830;DHT22;914;48.118;11.600;2022-07-29T06:46:56;24.80;89.20
1830;DHT22;914;48.118;11.600;2022-07-29T06:49:22;25.10;89.50
1830;DHT22;914;48.118;11.600;2022-07-29T06:51:49;25.30;87.60
1830;DHT22;914;48.118;11.600;2022-07-29T06:54:15;25.50;87.30
1830;DHT22;914;48.118;11.600;2022-07-29T06:56:40;25.60;88.90
1830;DHT22;914;48.118;11.600;2022-07-29T06:59:08;25.60;87.10
1830;DHT22;914;48.118;11.600;2022-07-29T07:01:40;25.80;86.20
1830;DHT22;914;48.118;11.600;2022-07-29T07:04:07;25.90;84.80
1830;DHT22;914;48.118;11.600;2022-07-29T07:06:34;25.60;85.90
1830;DHT22;914;48.118;11.600;2022-07-29T07:09:00;25.70;85.40
1830;DHT22;914;48.118;11.600;2022-07-29T07:11:26;25.70;85.50
1830;DHT22;914;48.118;11.600;2022-07-29T07:13:51;25.90;85.60
1830;DHT22;914;48.118;11.600;2022-07-29T07:16:17;26.20;84.80
1830;DHT22;914;48.118;11.600;2022-07-29T07:18:43;26.20;86.20
1830;DHT22;914;48.118;11.600;2022-07-29T07:21:10;26.20;83.70
1830;DHT22;914;48.118;11.600;2022-07-29T07:23:36;26.30;83.50
1830;DHT22;914;48.118;11.600;2022-07-29T07:26:02;26.50;83.40
1830;DHT22;914;48.118;11.600;2022-07-29T07:28:28;26.00;84.00
1830;DHT22;914;48.118;11.600;2022-07-29T07:30:54;25.90;83.60
1830;DHT22;914;48.118;11.600;2022-07-29T07:33:20;25.90;86.20
1830;DHT22;914;48.118;11.600;2022-07-29T07:35:46;26.20;85.10
1830;DHT22;914;48.118;11.600;2022-07-29T07:38:12;26.40;82.70
1830;DHT22;914;48.118;11.600;2022-07-29T07:40:38;26.40;82.90
1830;DHT22;914;48.118;11.600;2022-07-29T07:43:03;26.60;82.80
1830;DHT22;914;48.118;11.600;2022-07-29T07:45:29;26.70;83.40
1830;DHT22;914;48.118;11.600;2022-07-29T07:47:55;26.60;82.20
1830;DHT22;914;48.118;11.600;2022-07-29T07:50:20;26.40;81.60
1830;DHT22;914;48.118;11.600;2022-07-29T07:52:51;26.50;82.20
1830;DHT22;914;48.118;11.600;2022-07-29T07:55:17;26.60;81.70
1830;DHT22;914;48.118;11.600;2022-07-29T07:57:43;26.80;81.00
1830;DHT22;914;48.118;11.600;2022-07-29T08:00:10;27.00;81.60
1830;DHT22;914;48.118;11.600;2022-07-29T08:02:36;27.10;80.80
1830;DHT22;914;48.118;11.600;2022-07-29T08:05:01;27.20;79.20
1830;DHT22;914;48.118;11.600;2022-07-29T08:07:27;27.40;78.70
1830;DHT22;914;48.118;11.600;2022-07-29T08:09:53;27.50;78.00
1830;DHT22;914;48.118;11.600;2022-07-29T08:12:18;27.30;78.40
1830;DHT22;914;48.118;11.600;2022-07-29T08:14:44;27.50;78.60
1830;DHT22;914;48.118;11.600;2022-07-29T08:17:09;27.70;78.20
1830;DHT22;914;48.118;11.600;2022-07-29T08:19:35;27.80;77.20
1830;DHT22;914;48.118;11.600;2022-07-29T08:22:02;27.90;75.50
1830;DHT22;914;48.118;11.600;2022-07-29T08:24:28;27.90;74.60
1830;DHT22;914;48.118;11.600;2022-07-29T08:27:12;27.30;77.80
1830;DHT22;914;48.118;11.600;2022-07-29T08:29:38;27.40;78.20
1830;DHT22;914;48.118;11.600;2022-07-29T08:32:05;27.80;76.80
1830;DHT22;914;48.118;11.600;2022-07-29T08:34:31;27.70;75.40
1830;DHT22;914;48.118;11.600;2022-07-29T08:36:57;27.60;76.80
1830;DHT22;914;48.118;11.600;2022-07-29T08:39:24;27.60;76.80
1830;DHT22;914;48.118;11.600;2022-07-29T08:41:50;27.80;77.00
1830;DHT22;914;48.118;11.600;2022-07-29T08:44:17;27.80;75.60
1830;DHT22;914;48.118;11.600;2022-07-29T08:46:43;28.10;76.30
1830;DHT22;914;48.118;11.600;2022-07-29T08:49:09;28.30;75.90
1830;DHT22;914;48.118;11.600;2022-07-29T08:51:36;28.10;76.00
1830;DHT22;914;48.118;11.600;2022-07-29T08:54:02;27.80;75.90
1830;DHT22;914;48.118;11.600;2022-07-29T08:56:29;27.90;77.30
1830;DHT22;914;48.118;11.600;2022-07-29T08:58:58;28.00;77.60
1830;DHT22;914;48.118;11.600;2022-07-29T09:01:27;27.80;77.10
1830;DHT22;914;48.118;11.600;2022-07-29T09:03:56;28.10;76.60
1830;DHT22;914;48.118;11.600;2022-07-29T09:06:24;28.10;76.30
1830;DHT22;914;48.118;11.600;2022-07-29T09:08:54;27.90;76.70
1830;DHT22;914;48.118;11.600;2022-07-29T09:11:21;27.90;77.60
1830;DHT22;914;48.118;11.600;2022-07-29T09:13:47;28.00;77.10
1830;DHT22;914;48.118;11.600;2022-07-29T09:16:14;27.80;77.50
1830;DHT22;914;48.118;11.600;2022-07-29T09:18:42;27.80;78.00
1830;DHT22;914;48.118;11.600;2022-07-29T09:21:14;27.90;77.40
1830;DHT22;914;48.118;11.600;2022-07-29T09:24:14;28.10;77.60
1830;DHT22;914;48.118;11.600;2022-07-29T09:26:42;28.30;76.70
1830;DHT22;914;48.118;11.600;2022-07-29T09:29:16;28.50;76.70
1830;DHT22;914;48.118;11.600;2022-07-29T09:31:46;28.90;78.60
1830;DHT22;914;48.118;11.600;2022-07-29T09:34:14;29.30;78.30
1830;DHT22;914;48.118;11.600;2022-07-29T09:36:41;29.40;75.20
1830;DHT22;914;48.118;11.600;2022-07-29T09:39:07;29.50;75.40
1830;DHT22;914;48.118;11.600;2022-07-29T09:41:47;29.80;74.90
1830;DHT22;914;48.118;11.600;2022-07-29T09:44:12;29.80;74.70
1830;DHT22;914;48.118;11.600;2022-07-29T09:46:38;30.00;73.70
1830;DHT22;914;48.118;11.600;2022-07-29T09:49:08;30.10;73.80
1830;DHT22;914;48.118;11.600;2022-07-29T09:51:34;30.00;74.70
1830;DHT22;914;48.118;11.600;2022-07-29T09:54:00;29.70;75.00
1830;DHT22;914;48.118;11.600;2022-07-29T09:56:39;29.40;75.30
1830;DHT22;914;48.118;11.600;2022-07-29T09:59:06;28.90;75.20
1830;DHT22;914;48.118;11.600;2022-07-29T10:01:32;28.50;76.10
1830;DHT22;914;48.118;11.600;2022-07-29T10:03:57;28.40;78.20
1830;DHT22;914;48.118;11.600;2022-07-29T10:06:23;28.40;77.60
1830;DHT22;914;48.118;11.600;2022-07-29T10:08:49;28.30;78.60
1830;DHT22;914;48.118;11.600;2022-07-29T10:11:17;28.40;78.60
1830;DHT22;914;48.118;11.600;2022-07-29T10:13:44;28.50;77.10
1830;DHT22;914;48.118;11.600;2022-07-29T10:16:11;28.50;77.80
1830;DHT22;914;48.118;11.600;2022-07-29T10:18:41;28.50;78.10
1830;DHT22;914;48.118;11.600;2022-07-29T10:21:07;28.40;77.80
1830;DHT22;914;48.118;11.600;2022-07-29T10:23:33;28.50;77.30
1830;DHT22;914;48.118;11.600;2022-07-29T10:26:00;28.20;77.40
1830;DHT22;914;48.118;11.600;2022-07-29T10:28:25;27.90;77.20
1830;DHT22;914;48.118;11.600;2022-07-29T10:30:52;28.10;78.40
1830;DHT22;914;48.118;11.600;2022-07-29T10:36:12;28.20;78.50
1830;DHT22;914;48.118;11.600;2022-07-29T10:39:00;28.30;78.20
1830;DHT22;914;48.118;11.600;2022-07-29T10:41:47;28.40;77.60
1830;DHT22;914;48.118;11.600;2022-07-29T10:44:21;28.60;77.20
1830;DHT22;914;48.118;11.600;2022-07-29T10:46:48;28.60;76.20
1830;DHT22;914;48.118;11.600;2022-07-29T10:49:16;28.50;77.50
1830;DHT22;914;48.118;11.600;2022-07-29T10:51:55;28.40;77.60
1830;DHT22;914;48.118;11.600;2022-07-29T10:54:42;28.30;78.90
1830;DHT22;914;48.118;11.600;2022-07-29T10:57:18;28.50;80.10
1830;DHT22;914;48.118;11.600;2022-07-29T11:05:12;29.20;77.80
1830;DHT22;914;48.118;11.600;2022-07-29T11:07:40;29.30;79.40
1830;DHT22;914;48.118;11.600;2022-07-29T11:10:25;29.60;78.80
1830;DHT22;914;48.118;11.600;2022-07-29T11:12:51;29.60;75.30
1830;DHT22;914;48.118;11.600;2022-07-29T11:15:19;29.90;75.80
1830;DHT22;914;48.118;11.600;2022-07-29T11:34:25;30.10;70.40
1830;DHT22;914;48.118;11.600;2022-07-29T11:39:47;30.20;71.00
1830;DHT22;914;48.118;11.600;2022-07-29T11:45:02;30.30;70.40
1830;DHT22;914;48.118;11.600;2022-07-29T11:47:31;30.60;70.20
1830;DHT22;914;48.118;11.600;2022-07-29T11:49:59;30.80;70.80
1830;DHT22;914;48.118;11.600;2022-07-29T11:52:36;30.70;68.20
1830;DHT22;914;48.118;11.600;2022-07-29T11:55:10;30.60;69.70
1830;DHT22;914;48.118;11.600;2022-07-29T11:57:44;30.40;70.00
1830;DHT22;914;48.118;11.600;2022-07-29T12:00:10;29.90;71.10
1830;DHT22;914;48.118;11.600;2022-07-29T12:02:42;30.10;70.60
1830;DHT22;914;48.118;11.600;2022-07-29T12:05:09;30.30;70.50
1830;DHT22;914;48.118;11.600;2022-07-29T12:07:37;29.80;71.10
1830;DHT22;914;48.118;11.600;2022-07-29T12:10:04;30.10;72.70
1830;DHT22;914;48.118;11.600;2022-07-29T12:12:30;30.20;71.80
1830;DHT22;914;48.118;11.600;2022-07-29T12:14:56;30.40;72.30
1830;DHT22;914;48.118;11.600;2022-07-29T12:17:26;30.60;70.70
1830;DHT22;914;48.118;11.600;2022-07-29T12:19:53;30.70;70.90
1830;DHT22;914;48.118;11.600;2022-07-29T12:22:34;30.60;69.30
1830;DHT22;914;48.118;11.600;2022-07-29T12:25:04;30.20;69.10
1830;DHT22;914;48.118;11.600;2022-07-29T12:27:31;30.10;70.20
1830;DHT22;914;48.118;11.600;2022-07-29T12:30:00;30.20;71.70
1830;DHT22;914;48.118;11.600;2022-07-29T12:32:33;30.20;69.10
1830;DHT22;914;48.118;11.600;2022-07-29T12:35:10;29.90;69.10
1830;DHT22;914;48.118;11.600;2022-07-29T12:37:38;29.60;68.10
1830;DHT22;914;48.118;11.600;2022-07-29T12:40:05;29.80;69.30
1830;DHT22;914;48.118;11.600;2022-07-29T12:42:32;30.00;69.90
1830;DHT22;914;48.118;11.600;2022-07-29T12:44:58;30.10;68.90
1830;DHT22;914;48.118;11.600;2022-07-29T12:47:24;30.10;69.00
1830;DHT22;914;48.118;11.600;2022-07-29T12:49:51;30.00;69.60
1830;DHT22;914;48.118;11.600;2022-07-29T12:52:34;30.20;70.20
1830;DHT22;914;48.118;11.600;2022-07-29T12:55:00;30.10;70.70
1830;DHT22;914;48.118;11.600;2022-07-29T12:57:27;30.20;70.80
1830;DHT22;914;48.118;11.600;2022-07-29T13:00:08;30.40;71.00
1830;DHT22;914;48.118;11.600;2022-07-29T13:02:37;30.40;71.60
1830;DHT22;914;48.118;11.600;2022-07-29T13:05:03;30.40;70.10
1830;DHT22;914;48.118;11.600;2022-07-29T13:07:31;30.50;69.60
1830;DHT22;914;48.118;11.600;2022-07-29T13:10:11;30.30;70.00
1830;DHT22;914;48.118;11.600;2022-07-29T13:12:37;30.10;70.20
1830;DHT22;914;48.118;11.600;2022-07-29T13:15:15;29.70;69.10
1830;DHT22;914;48.118;11.600;2022-07-29T13:17:42;29.40;71.50
1830;DHT22;914;48.118;11.600;2022-07-29T13:20:12;29.30;71.10
1830;DHT22;914;48.118;11.600;2022-07-29T13:22:39;29.10;71.60
1830;DHT22;914;48.118;11.600;2022-07-29T13:25:06;28.90;72.30
1830;DHT22;914;48.118;11.600;2022-07-29T13:27:36;28.70;72.30
1830;DHT22;914;48.118;11.600;2022-07-29T13:30:04;28.80;72.60
1830;DHT22;914;48.118;11.600;2022-07-29T13:32:31;29.00;73.40
1830;DHT22;914;48.118;11.600;2022-07-29T13:35:00;29.20;73.10
1830;DHT22;914;48.118;11.600;2022-07-29T13:37:27;29.00;72.70
1830;DHT22;914;48.118;11.600;2022-07-29T13:39:55;29.10;72.10
1830;DHT22;914;48.118;11.600;2022-07-29T13:42:23;28.90;73.50
1830;DHT22;914;48.118;11.600;2022-07-29T13:44:49;28.90;73.70
1830;DHT22;914;48.118;11.600;2022-07-29T13:47:17;28.80;74.50
1830;DHT22;914;48.118;11.600;2022-07-29T13:49:43;28.20;74.20
1830;DHT22;914;48.118;11.600;2022-07-29T13:52:08;28.30;76.30
1830;DHT22;914;48.118;11.600;2022-07-29T13:54:34;28.20;77.00
1830;DHT22;914;48.118;11.600;2022-07-29T13:57:06;28.30;76.70
1830;DHT22;914;48.118;11.600;2022-07-29T13:59:32;28.40;77.00
1830;DHT22;914;48.118;11.600;2022-07-29T14:01:58;28.40;75.40
1830;DHT22;914;48.118;11.600;2022-07-29T14:04:23;28.80;75.90
1830;DHT22;914;48.118;11.600;2022-07-29T14:06:49;29.00;76.00
1830;DHT22;914;48.118;11.600;2022-07-29T14:09:15;29.10;74.70
1830;DHT22;914;48.118;11.600;2022-07-29T14:11:41;28.90;75.20
1830;DHT22;914;48.118;11.600;2022-07-29T14:14:07;29.10;74.80
1830;DHT22;914;48.118;11.600;2022-07-29T14:16:33;29.30;74.20
1830;DHT22;914;48.118;11.600;2022-07-29T14:18:59;29.60;74.60
1830;DHT22;914;48.118;11.600;2022-07-29T14:21:24;29.60;73.80
1830;DHT22;914;48.118;11.600;2022-07-29T14:23:50;29.30;74.50
1830;DHT22;914;48.118;11.600;2022-07-29T14:26:17;29.30;75.40
1830;DHT22;914;48.118;11.600;2022-07-29T14:28:42;29.40;74.50
1830;DHT22;914;48.118;11.600;2022-07-29T14:31:09;29.30;74.50
1830;DHT22;914;48.118;11.600;2022-07-29T14:33:34;29.40;73.30
1830;DHT22;914;48.118;11.600;2022-07-29T14:36:00;29.50;74.20
1830;DHT22;914;48.118;11.600;2022-07-29T14:38:26;29.40;73.10
1830;DHT22;914;48.118;11.600;2022-07-29T14:40:52;29.10;73.90
1830;DHT22;914;48.118;11.600;2022-07-29T14:43:19;29.00;74.40
1830;DHT22;914;48.118;11.600;2022-07-29T14:45:45;29.10;73.70
1830;DHT22;914;48.118;11.600;2022-07-29T14:48:10;29.10;73.40
1830;DHT22;914;48.118;11.600;2022-07-29T14:50:37;29.00;73.30
1830;DHT22;914;48.118;11.600;2022-07-29T14:53:03;29.10;73.60
1830;DHT22;914;48.118;11.600;2022-07-29T14:55:28;29.10;73.10
1830;DHT22;914;48.118;11.600;2022-07-29T14:57:54;29.10;73.50
1830;DHT22;914;48.118;11.600;2022-07-29T15:00:20;28.80;73.70
1830;DHT22;914;48.118;11.600;2022-07-29T15:02:47;28.90;74.10
1830;DHT22;914;48.118;11.600;2022-07-29T15:05:13;28.90;74.50
1830;DHT22;914;48.118;11.600;2022-07-29T15:07:40;28.90;73.40
1830;DHT22;914;48.118;11.600;2022-07-29T15:10:06;28.90;74.00
1830;DHT22;914;48.118;11.600;2022-07-29T15:12:32;29.00;72.70
1830;DHT22;914;48.118;11.600;2022-07-29T15:14:57;29.00;72.80
1830;DHT22;914;48.118;11.600;2022-07-29T15:17:23;29.00;72.80
1830;DHT22;914;48.118;11.600;2022-07-29T15:19:49;28.80;73.80
1830;DHT22;914;48.118;11.600;2022-07-29T15:22:15;28.70;73.60
1830;DHT22;914;48.118;11.600;2022-07-29T15:24:40;28.80;73.60
1830;DHT22;914;48.118;11.600;2022-07-29T15:27:06;28.80;73.90
1830;DHT22;914;48.118;11.600;2022-07-29T15:29:32;28.80;74.20
1830;DHT22;914;48.118;11.600;2022-07-29T15:31:58;28.90;72.60
1830;DHT22;914;48.118;11.600;2022-07-29T15:34:24;28.80;73.00
1830;DHT22;914;48.118;11.600;2022-07-29T15:36:52;28.60;73.60
1830;DHT22;914;48.118;11.600;2022-07-29T15:39:20;28.50;75.10
1830;DHT22;914;48.118;11.600;2022-07-29T15:41:46;28.30;75.70
1830;DHT22;914;48.118;11.600;2022-07-29T15:44:11;28.10;76.00
1830;DHT22;914;48.118;11.600;2022-07-29T15:46:37;28.30;76.10
1830;DHT22;914;48.118;11.600;2022-07-29T15:49:21;28.30;76.70
1830;DHT22;914;48.118;11.600;2022-07-29T15:51:47;28.40;77.10
1830;DHT22;914;48.118;11.600;2022-07-29T15:54:12;28.30;77.60
1830;DHT22;914;48.118;11.600;2022-07-29T15:56:38;28.10;78.80
1830;DHT22;914;48.118;11.600;2022-07-29T15:59:04;28.00;78.50
1830;DHT22;914;48.118;11.600;2022-07-29T16:01:29;27.90;79.60
1830;DHT22;914;48.118;11.600;2022-07-29T16:03:56;28.00;79.20
1830;DHT22;914;48.118;11.600;2022-07-29T16:06:22;28.00;79.40
1830;DHT22;914;48.118;11.600;2022-07-29T16:08:47;27.90;79.10
1830;DHT22;914;48.118;11.600;2022-07-29T16:11:13;28.00;78.70
1830;DHT22;914;48.118;11.600;2022-07-29T16:13:38;28.00;78.70
1830;DHT22;914;48.118;11.600;2022-07-29T16:16:04;28.00;79.30
1830;DHT22;914;48.118;11.600;2022-07-29T16:18:30;27.80;81.10
1830;DHT22;914;48.118;11.600;2022-07-29T16:20:56;27.80;80.20
1830;DHT22;914;48.118;11.600;2022-07-29T16:23:21;27.70;80.30
1830;DHT22;914;48.118;11.600;2022-07-29T16:25:48;27.80;80.50
1830;DHT22;914;48.118;11.600;2022-07-29T16:28:14;27.70;80.80
1830;DHT22;914;48.118;11.600;2022-07-29T16:30:39;27.50;81.70
1830;DHT22;914;48.118;11.600;2022-07-29T16:33:05;27.30;82.50
1830;DHT22;914;48.118;11.600;2022-07-29T16:35:31;27.10;83.00
1830;DHT22;914;48.118;11.600;2022-07-29T16:37:57;27.20;82.80
1830;DHT22;914;48.118;11.600;2022-07-29T16:40:22;27.20;82.50
1830;DHT22;914;48.118;11.600;2022-07-29T16:42:48;27.30;82.80
1830;DHT22;914;48.118;11.600;2022-07-29T16:45:15;27.40;82.70
1830;DHT22;914;48.118;11.600;2022-07-29T16:47:41;27.30;83.30
1830;DHT22;914;48.118;11.600;2022-07-29T16:50:07;27.30;83.30
1830;DHT22;914;48.118;11.600;2022-07-29T16:52:33;27.30;83.30
1830;DHT22;914;48.118;11.600;2022-07-29T16:54:58;27.30;83.10
1830;DHT22;914;48.118;11.600;2022-07-29T16:57:24;27.20;83.20
1830;DHT22;914;48.118;11.600;2022-07-29T16:59:50;27.10;83.50